Time;durP1;ratioP1;P1;durP2;ratioP2;P2;SDS_P1;SDS_P2;PMS_P1;PMS_P2;Temp;Humidity;BMP_temperature;BMP_pressure;BME280_temperature;BME280_humidity;BME280_pressure;Samples;Min_cycle;Max_cycle;Signal;HPM_P1;HPM_P2
2021/11/29 00:01:07;;;;;;;5.90;2.10;;;0.00;99.90;;;;;;5048685;28;20045;-94
2021/11/29 00:03:33;;;;;;;5.80;2.15;;;0.00;99.90;;;;;;5049431;28;20518;-95
2021/11/29 00:05:59;;;;;;;3.88;1.80;;;-0.10;99.90;;;;;;5048815;28;20434;-96
2021/11/29 00:08:25;;;;;;;5.15;2.15;;;-0.10;99.90;;;;;;5032890;28;20364;-95
2021/11/29 00:10:51;;;;;;;8.63;2.15;;;0.10;99.90;;;;;;5028437;28;20056;-93
2021/11/29 00:13:17;;;;;;;8.18;1.88;;;0.00;99.90;;;;;;5028651;28;20057;-94
2021/11/29 00:15:43;;;;;;;8.80;2.85;;;0.00;99.90;;;;;;5028823;28;20544;-93
2021/11/29 00:18:09;;;;;;;6.47;2.15;;;0.10;99.90;;;;;;5028654;28;20040;-95
2021/11/29 00:20:36;;;;;;;8.30;2.08;;;0.20;99.90;;;;;;5028721;28;20471;-95
2021/11/29 00:23:03;;;;;;;8.73;1.98;;;0.40;99.90;;;;;;5028491;28;20482;-94
2021/11/29 00:25:29;;;;;;;4.65;2.25;;;0.50;99.90;;;;;;5028913;28;20061;-94
2021/11/29 00:27:55;;;;;;;9.75;1.92;;;0.40;99.90;;;;;;5028618;28;20109;-95
2021/11/29 00:30:21;;;;;;;6.43;1.63;;;0.50;99.90;;;;;;5028823;28;20144;-94
2021/11/29 00:32:47;;;;;;;5.03;1.80;;;0.60;99.90;;;;;;5028143;28;20037;-92
2021/11/29 00:35:13;;;;;;;4.28;1.70;;;0.60;99.90;;;;;;5029177;28;20048;-94
2021/11/29 00:37:39;;;;;;;4.45;1.10;;;0.70;99.90;;;;;;5029202;28;20033;-95
2021/11/29 00:40:25;;;;;;;3.97;1.38;;;0.70;99.90;;;;;;5028419;28;20504;-91
2021/11/29 00:42:51;;;;;;;6.82;1.00;;;0.90;99.90;;;;;;4954807;28;20059;-94
2021/11/29 00:45:17;;;;;;;7.90;1.00;;;1.10;99.90;;;;;;4988879;28;20042;-94
2021/11/29 00:47:43;;;;;;;3.30;0.93;;;1.00;99.90;;;;;;4988401;28;20038;-94
2021/11/29 00:50:11;;;;;;;3.75;0.60;;;1.00;99.90;;;;;;4988120;28;20046;-93
2021/11/29 00:52:38;;;;;;;3.60;0.85;;;0.90;99.90;;;;;;4988138;28;20061;-93
2021/11/29 00:55:04;;;;;;;3.28;0.70;;;1.00;99.90;;;;;;4988283;28;20073;-93
2021/11/29 00:57:30;;;;;;;3.40;0.50;;;0.90;99.90;;;;;;4988202;28;20110;-94
2021/11/29 00:59:56;;;;;;;4.50;0.73;;;0.90;99.90;;;;;;4988312;28;20086;-94
2021/11/29 01:02:22;;;;;;;4.53;0.50;;;0.90;99.90;;;;;;4988473;28;20073;-95
2021/11/29 01:04:48;;;;;;;4.50;0.85;;;0.90;99.90;;;;;;4988136;28;20204;-93
2021/11/29 01:07:15;;;;;;;4.05;0.70;;;0.90;99.90;;;;;;4988096;28;20042;-94
2021/11/29 01:09:41;;;;;;;3.25;0.60;;;0.80;99.90;;;;;;4987808;28;20049;-95
2021/11/29 01:12:07;;;;;;;5.13;0.45;;;0.80;99.90;;;;;;4971608;28;20038;-95
2021/11/29 01:14:34;;;;;;;4.97;0.60;;;0.80;99.90;;;;;;4971790;28;20042;-94
2021/11/29 01:17:00;;;;;;;4.20;0.50;;;0.70;99.90;;;;;;4971923;28;20046;-94
2021/11/29 01:19:27;;;;;;;5.57;0.60;;;0.80;99.90;;;;;;5006766;28;20117;-95
2021/11/29 01:21:52;;;;;;;1.98;0.43;;;0.70;99.90;;;;;;5031242;28;20061;-94
2021/11/29 01:24:18;;;;;;;3.33;0.50;;;0.60;99.90;;;;;;5031147;28;20033;-95
2021/11/29 01:26:45;;;;;;;3.70;0.50;;;0.50;99.90;;;;;;5047976;28;20053;-95
2021/11/29 01:29:11;;;;;;;4.60;0.40;;;0.60;99.90;;;;;;5031161;28;20057;-95
2021/11/29 01:31:36;;;;;;;4.00;0.40;;;0.50;99.90;;;;;;5045329;28;20060;-95
2021/11/29 01:34:02;;;;;;;3.78;0.43;;;0.50;99.90;;;;;;5011633;28;20371;-95
2021/11/29 01:36:28;;;;;;;3.60;0.40;;;0.60;99.90;;;;;;5011892;28;20037;-95
2021/11/29 01:38:54;;;;;;;1.15;0.25;;;0.60;99.90;;;;;;5028662;28;20039;-95
2021/11/29 01:41:19;;;;;;;3.28;0.30;;;0.60;99.90;;;;;;5039010;28;20070;-94
2021/11/29 01:43:46;;;;;;;1.30;0.30;;;0.60;99.90;;;;;;5012738;28;20108;-94
2021/11/29 01:46:12;;;;;;;2.83;0.35;;;0.50;99.90;;;;;;5031665;28;20034;-95
2021/11/29 01:48:38;;;;;;;2.60;0.30;;;0.50;99.90;;;;;;5031444;28;20041;-94
2021/11/29 01:51:04;;;;;;;2.58;0.63;;;0.40;99.90;;;;;;5029432;28;20087;-95
2021/11/29 01:53:32;;;;;;;3.53;0.30;;;0.40;99.90;;;;;;5051227;28;20043;-95
2021/11/29 01:55:58;;;;;;;3.95;0.50;;;0.50;99.90;;;;;;5037741;28;20036;-94
2021/11/29 01:58:26;;;;;;;0.70;0.20;;;0.50;99.90;;;;;;5034817;28;20048;-95
2021/11/29 02:00:57;;;;;;;2.78;0.20;;;0.50;99.90;;;;;;5034687;28;20032;-94
2021/11/29 02:03:24;;;;;;;1.95;0.25;;;0.50;99.90;;;;;;5034674;28;20064;-94
2021/11/29 02:05:51;;;;;;;1.48;0.20;;;0.60;99.90;;;;;;5034520;28;20064;-94
2021/11/29 02:08:18;;;;;;;2.65;0.10;;;0.70;99.90;;;;;;5034224;28;20041;-94
2021/11/29 02:10:44;;;;;;;2.35;0.20;;;0.60;99.90;;;;;;5033829;28;20049;-93
2021/11/29 02:13:10;;;;;;;2.17;0.10;;;0.60;99.90;;;;;;5050886;28;20029;-94
2021/11/29 02:15:37;;;;;;;2.35;0.10;;;0.60;99.90;;;;;;5051114;28;20044;-94
2021/11/29 02:18:05;;;;;;;6.35;0.20;;;0.60;99.90;;;;;;5050941;28;20041;-94
2021/11/29 02:20:57;;;;;;;0.85;0.13;;;0.50;99.90;;;;;;5034369;28;20037;-94
2021/11/29 02:23:22;;;;;;;5.07;0.20;;;0.60;99.90;;;;;;5034826;28;20090;-93
2021/11/29 02:25:48;;;;;;;1.50;0.20;;;0.60;99.90;;;;;;5034393;28;20104;-95
2021/11/29 02:28:18;;;;;;;3.00;0.30;;;0.50;99.90;;;;;;5050627;28;20140;-93
2021/11/29 02:30:43;;;;;;;1.80;0.20;;;0.50;99.90;;;;;;5034532;28;20056;-95
2021/11/29 02:33:09;;;;;;;1.80;0.43;;;0.50;99.90;;;;;;5050601;28;20119;-94
2021/11/29 02:35:35;;;;;;;9.65;0.52;;;0.60;99.90;;;;;;5034116;28;20037;-93
2021/11/29 02:38:00;;;;;;;1.55;0.20;;;0.50;99.90;;;;;;5033992;28;20096;-93
2021/11/29 02:40:26;;;;;;;2.15;0.20;;;0.50;99.90;;;;;;5050219;28;20094;-92
2021/11/29 02:42:52;;;;;;;2.78;0.15;;;0.50;99.90;;;;;;5050102;28;20045;-94
2021/11/29 02:45:18;;;;;;;2.78;0.20;;;0.50;99.90;;;;;;5037821;28;20489;-94
2021/11/29 02:47:44;;;;;;;3.25;0.20;;;0.50;99.90;;;;;;5050448;28;20045;-95
2021/11/29 02:50:10;;;;;;;2.45;0.20;;;0.60;99.90;;;;;;5033370;28;20041;-93
2021/11/29 02:52:36;;;;;;;2.47;0.20;;;0.60;99.90;;;;;;5050255;28;20037;-95
2021/11/29 02:55:04;;;;;;;1.20;0.20;;;0.60;99.90;;;;;;5050267;28;20053;-94
2021/11/29 02:57:29;;;;;;;1.95;0.20;;;0.70;99.90;;;;;;5049990;28;20037;-93
2021/11/29 02:59:55;;;;;;;2.30;0.20;;;0.70;99.90;;;;;;5050424;28;20125;-94
2021/11/29 03:02:21;;;;;;;1.20;0.20;;;0.60;99.90;;;;;;5050044;28;20044;-93
2021/11/29 03:04:48;;;;;;;2.35;0.20;;;0.60;99.90;;;;;;5050198;28;20048;-94
2021/11/29 03:07:15;;;;;;;1.98;0.20;;;0.60;99.90;;;;;;5049860;28;20041;-93
2021/11/29 03:09:41;;;;;;;1.60;0.20;;;0.50;99.90;;;;;;5045844;28;20063;-95
2021/11/29 03:12:08;;;;;;;3.60;0.30;;;0.50;99.90;;;;;;5033229;28;20067;-94
2021/11/29 03:14:34;;;;;;;1.45;0.20;;;0.50;99.90;;;;;;5032988;28;20041;-94
2021/11/29 03:17:00;;;;;;;1.30;0.38;;;0.50;99.90;;;;;;5033114;28;20051;-93
2021/11/29 03:19:31;;;;;;;0.50;0.10;;;0.50;99.90;;;;;;5033158;28;20045;-95
2021/11/29 03:21:57;;;;;;;2.72;0.20;;;0.50;99.90;;;;;;5032994;28;20040;-94
2021/11/29 03:24:22;;;;;;;0.95;0.10;;;0.50;99.90;;;;;;5033317;28;20040;-95
2021/11/29 03:26:48;;;;;;;1.65;0.20;;;0.50;99.90;;;;;;5033260;28;20041;-93
2021/11/29 03:29:16;;;;;;;0.95;0.20;;;0.50;99.90;;;;;;5032764;28;20069;-94
2021/11/29 03:31:43;;;;;;;1.35;0.10;;;0.40;99.90;;;;;;5033286;28;20032;-95
2021/11/29 03:34:14;;;;;;;0.93;0.10;;;0.40;99.90;;;;;;5032868;28;20037;-94
2021/11/29 03:36:43;;;;;;;2.15;0.20;;;0.40;99.90;;;;;;5033030;28;20029;-95
2021/11/29 03:39:13;;;;;;;0.73;0.20;;;0.40;99.90;;;;;;5032987;28;20135;-94
2021/11/29 03:41:41;;;;;;;1.48;0.20;;;0.20;99.90;;;;;;5032907;28;20052;-94
2021/11/29 03:44:07;;;;;;;1.95;0.10;;;0.30;99.90;;;;;;5048959;28;20041;-95
2021/11/29 03:46:33;;;;;;;1.15;0.20;;;0.30;99.90;;;;;;5032599;28;20072;-94
2021/11/29 03:48:59;;;;;;;2.50;0.20;;;0.40;99.90;;;;;;5032307;28;20048;-94
2021/11/29 03:51:25;;;;;;;1.92;0.10;;;0.40;99.90;;;;;;5040502;28;20067;-95
2021/11/29 03:53:51;;;;;;;0.50;0.13;;;0.40;99.90;;;;;;5049149;28;20037;-93
2021/11/29 03:56:17;;;;;;;0.90;0.10;;;0.40;99.90;;;;;;5049444;28;20048;-95
2021/11/29 03:58:43;;;;;;;1.55;0.10;;;0.40;99.90;;;;;;5048894;28;20040;-93
2021/11/29 04:01:09;;;;;;;1.45;0.20;;;0.40;99.90;;;;;;5048980;28;20037;-95
2021/11/29 04:03:35;;;;;;;1.67;0.20;;;0.40;99.90;;;;;;5048463;28;20043;-94
2021/11/29 04:06:01;;;;;;;4.68;0.20;;;0.40;99.90;;;;;;5049089;28;20044;-94
2021/11/29 04:08:26;;;;;;;0.93;0.17;;;0.40;99.90;;;;;;5048527;28;20044;-93
2021/11/29 04:10:53;;;;;;;2.08;0.10;;;0.40;99.90;;;;;;5035599;28;20501;-94
2021/11/29 04:13:19;;;;;;;2.03;0.63;;;0.40;99.90;;;;;;5032741;28;20401;-94
2021/11/29 04:15:45;;;;;;;2.72;0.25;;;0.40;99.90;;;;;;5032290;28;20041;-94
2021/11/29 04:18:11;;;;;;;1.13;0.10;;;0.40;99.90;;;;;;5033316;28;20068;-94
2021/11/29 04:20:36;;;;;;;0.90;0.10;;;0.40;99.90;;;;;;5032879;28;20489;-94
2021/11/29 04:23:03;;;;;;;1.35;0.10;;;0.40;99.90;;;;;;5032588;28;20033;-94
2021/11/29 04:25:35;;;;;;;0.85;0.10;;;0.50;99.90;;;;;;5032605;28;20067;-94
2021/11/29 04:28:02;;;;;;;0.40;0.10;;;0.50;99.90;;;;;;5032109;28;20136;-94
2021/11/29 04:30:28;;;;;;;1.45;0.10;;;0.50;99.90;;;;;;5048540;28;20068;-93
2021/11/29 04:32:55;;;;;;;0.68;0.20;;;0.50;99.90;;;;;;5048639;28;20047;-94
2021/11/29 04:35:21;;;;;;;0.60;0.10;;;0.50;99.90;;;;;;5031814;28;20044;-93
2021/11/29 04:37:47;;;;;;;2.35;0.20;;;0.60;99.90;;;;;;5031943;28;20065;-93
2021/11/29 04:40:33;;;;;;;2.80;0.13;;;0.60;99.90;;;;;;5031830;28;20040;-94
2021/11/29 04:42:59;;;;;;;0.63;0.10;;;0.60;99.90;;;;;;5007640;28;20042;-94
2021/11/29 04:45:25;;;;;;;1.48;0.20;;;0.60;99.90;;;;;;4991845;28;20101;-94
2021/11/29 04:47:50;;;;;;;2.85;0.20;;;0.60;99.90;;;;;;5008039;28;20046;-93
2021/11/29 04:50:16;;;;;;;1.05;0.40;;;0.60;99.90;;;;;;5009737;28;20068;-92
2021/11/29 04:52:42;;;;;;;1.88;0.30;;;0.60;99.90;;;;;;5043838;28;20052;-92
2021/11/29 04:55:09;;;;;;;1.85;0.30;;;0.70;99.90;;;;;;5044316;28;20045;-93
2021/11/29 04:57:34;;;;;;;1.77;0.30;;;0.70;99.90;;;;;;5027451;28;20042;-92
2021/11/29 05:00:00;;;;;;;1.45;0.28;;;0.70;99.90;;;;;;5043865;28;20052;-90
2021/11/29 05:02:26;;;;;;;1.65;0.40;;;0.70;99.90;;;;;;5027258;28;20133;-92
2021/11/29 05:04:52;;;;;;;1.23;0.30;;;0.70;99.90;;;;;;5043722;28;20037;-92
2021/11/29 05:07:18;;;;;;;2.92;0.40;;;0.70;99.90;;;;;;5043697;28;20119;-92
2021/11/29 05:09:44;;;;;;;3.88;0.40;;;0.70;99.90;;;;;;5036411;28;20053;-92
2021/11/29 05:12:14;;;;;;;1.83;0.50;;;0.70;99.90;;;;;;4991470;28;20184;-92
2021/11/29 05:14:40;;;;;;;1.10;0.30;;;0.80;99.90;;;;;;5024015;28;20098;-91
2021/11/29 05:17:05;;;;;;;2.67;0.50;;;0.80;99.90;;;;;;4991092;28;20041;-90
2021/11/29 05:19:31;;;;;;;1.55;0.40;;;0.80;99.90;;;;;;5036968;28;20041;-91
2021/11/29 05:21:58;;;;;;;1.42;0.40;;;0.80;99.90;;;;;;5035329;28;20044;-92
2021/11/29 05:24:23;;;;;;;3.47;0.40;;;0.80;99.90;;;;;;5035265;28;20037;-91
2021/11/29 05:26:49;;;;;;;1.85;0.40;;;0.70;99.90;;;;;;5035157;28;20044;-93
2021/11/29 05:29:15;;;;;;;3.72;0.30;;;0.70;99.90;;;;;;5034579;28;20444;-92
2021/11/29 05:31:45;;;;;;;1.45;0.32;;;0.80;99.90;;;;;;5035299;28;20044;-90
2021/11/29 05:34:12;;;;;;;2.10;0.30;;;0.70;99.90;;;;;;5035239;28;20037;-90
2021/11/29 05:36:37;;;;;;;4.75;0.30;;;0.80;99.90;;;;;;5034987;28;20279;-92
2021/11/29 05:39:04;;;;;;;2.25;0.22;;;0.80;99.90;;;;;;5034814;28;20132;-88
2021/11/29 05:41:29;;;;;;;3.10;0.30;;;0.80;99.90;;;;;;5034741;28;20041;-89
2021/11/29 05:43:55;;;;;;;2.42;0.30;;;0.80;99.90;;;;;;5034741;28;20065;-90
2021/11/29 05:46:24;;;;;;;1.05;0.30;;;0.80;99.90;;;;;;5051384;28;20041;-89
2021/11/29 05:48:50;;;;;;;5.20;0.30;;;0.80;99.90;;;;;;5034591;28;20044;-91
2021/11/29 05:51:16;;;;;;;1.52;0.20;;;0.80;99.90;;;;;;5041103;28;20044;-90
2021/11/29 05:53:43;;;;;;;3.28;0.30;;;0.70;99.90;;;;;;5067819;28;20068;-89
2021/11/29 05:56:08;;;;;;;3.00;0.30;;;0.70;99.90;;;;;;5051264;28;20044;-89
2021/11/29 05:58:35;;;;;;;2.25;0.40;;;0.70;99.90;;;;;;5051124;28;20029;-90
2021/11/29 06:01:02;;;;;;;1.83;0.38;;;0.70;99.90;;;;;;5050922;28;20037;-89
2021/11/29 06:03:27;;;;;;;1.10;0.40;;;0.60;99.90;;;;;;5050483;28;20114;-90
2021/11/29 06:05:53;;;;;;;4.47;0.40;;;0.60;99.90;;;;;;5050489;28;20064;-90
2021/11/29 06:08:19;;;;;;;6.80;0.60;;;0.60;99.90;;;;;;5050780;28;20049;-90
2021/11/29 06:10:44;;;;;;;1.95;0.50;;;0.70;99.90;;;;;;5034832;28;20053;-90
2021/11/29 06:13:10;;;;;;;2.67;0.50;;;0.60;99.90;;;;;;5047678;28;20109;-91
2021/11/29 06:15:36;;;;;;;5.57;0.50;;;0.60;99.90;;;;;;5047554;28;20040;-90
2021/11/29 06:18:01;;;;;;;2.90;0.43;;;0.60;99.90;;;;;;5047237;28;20043;-91
2021/11/29 06:20:27;;;;;;;3.03;0.50;;;0.70;99.90;;;;;;5047719;28;20049;-93
2021/11/29 06:22:55;;;;;;;2.58;0.50;;;0.70;99.90;;;;;;5014966;28;20069;-95
2021/11/29 06:25:22;;;;;;;3.50;0.88;;;0.70;99.90;;;;;;5014692;28;20045;-93
2021/11/29 06:27:49;;;;;;;4.68;0.70;;;0.70;99.90;;;;;;5014529;28;20049;-94
2021/11/29 06:30:16;;;;;;;3.40;0.70;;;0.80;99.90;;;;;;5030639;28;20052;-94
2021/11/29 06:32:41;;;;;;;2.78;0.65;;;0.70;99.90;;;;;;5016072;28;20038;-93
2021/11/29 06:35:08;;;;;;;3.55;0.82;;;0.80;99.90;;;;;;5015823;28;20055;-95
2021/11/29 06:37:35;;;;;;;3.05;0.70;;;0.80;99.90;;;;;;5015513;28;20033;-93
2021/11/29 06:40:21;;;;;;;6.97;0.70;;;0.90;99.90;;;;;;5014316;28;20042;-91
2021/11/29 06:42:47;;;;;;;2.63;0.68;;;0.90;99.90;;;;;;4951583;29;20043;-93
2021/11/29 06:46:04;;;;;;;2.85;0.80;;;0.90;99.90;;;;;;4935736;29;20054;-92
2021/11/29 06:48:29;;;;;;;8.07;1.10;;;1.00;99.90;;;;;;4966489;29;20031;-92
2021/11/29 06:50:56;;;;;;;5.35;0.98;;;1.00;99.90;;;;;;4949687;28;20046;-93
2021/11/29 06:53:23;;;;;;;4.78;0.93;;;1.00;99.90;;;;;;5006145;28;20035;-93
2021/11/29 06:55:50;;;;;;;6.68;0.93;;;0.90;99.90;;;;;;5006198;28;20034;-92
2021/11/29 06:58:16;;;;;;;4.25;0.80;;;1.00;99.90;;;;;;5006187;28;20035;-91
2021/11/29 07:00:42;;;;;;;5.13;0.80;;;1.00;99.90;;;;;;5005700;28;20090;-88
2021/11/29 07:03:07;;;;;;;7.63;1.25;;;1.00;99.90;;;;;;5005751;28;20038;-92
2021/11/29 07:05:34;;;;;;;2.83;1.15;;;1.10;99.90;;;;;;5005421;28;20089;-90
2021/11/29 07:08:00;;;;;;;5.43;1.55;;;1.20;99.90;;;;;;5005710;28;20042;-90
2021/11/29 07:10:28;;;;;;;6.90;1.15;;;1.20;99.90;;;;;;5005662;28;20073;-91
2021/11/29 07:12:54;;;;;;;3.10;1.25;;;1.20;99.90;;;;;;5005752;28;20062;-90
2021/11/29 07:15:25;;;;;;;8.32;3.22;;;1.20;99.90;;;;;;4989549;28;20065;-90
2021/11/29 07:17:51;;;;;;;5.50;1.70;;;1.20;99.90;;;;;;5005878;28;20049;-89
2021/11/29 07:20:17;;;;;;;5.80;1.60;;;1.30;99.90;;;;;;5022573;28;20108;-91
2021/11/29 07:22:43;;;;;;;7.90;1.67;;;1.30;99.90;;;;;;5029503;28;20128;-91
2021/11/29 07:25:09;;;;;;;4.72;1.83;;;1.40;99.90;;;;;;5029305;28;20046;-91
2021/11/29 07:27:35;;;;;;;6.45;1.88;;;1.30;99.90;;;;;;5029212;28;20069;-90
2021/11/29 07:30:04;;;;;;;7.28;1.65;;;1.30;99.90;;;;;;5029395;28;20053;-90
2021/11/29 07:32:30;;;;;;;3.97;1.08;;;1.40;99.90;;;;;;5029617;28;20041;-89
2021/11/29 07:34:56;;;;;;;4.90;1.35;;;1.40;99.90;;;;;;5012800;28;20091;-90
2021/11/29 07:37:22;;;;;;;5.30;1.20;;;1.40;99.90;;;;;;5029314;28;20037;-91
2021/11/29 07:39:48;;;;;;;4.43;1.35;;;1.50;99.90;;;;;;5029360;28;20052;-92
2021/11/29 07:42:15;;;;;;;5.00;1.38;;;1.50;99.90;;;;;;5012818;28;20041;-93
2021/11/29 07:44:41;;;;;;;5.57;1.65;;;1.50;99.90;;;;;;5029129;28;20113;-92
2021/11/29 07:47:07;;;;;;;5.57;1.00;;;1.50;99.90;;;;;;5029241;28;20037;-91
2021/11/29 07:49:33;;;;;;;3.55;0.82;;;1.60;99.90;;;;;;5028540;28;20057;-91
2021/11/29 07:51:59;;;;;;;5.75;1.33;;;1.60;99.90;;;;;;5057786;28;20063;-91
2021/11/29 07:54:25;;;;;;;3.08;0.80;;;1.70;99.90;;;;;;5048112;28;20067;-90
2021/11/29 07:56:51;;;;;;;4.68;1.40;;;1.70;99.90;;;;;;5048242;28;20406;-91
2021/11/29 07:59:17;;;;;;;6.25;1.45;;;1.70;99.90;;;;;;5047964;28;20075;-90
2021/11/29 08:01:42;;;;;;;5.53;1.20;;;1.70;99.90;;;;;;5047951;28;20056;-90
2021/11/29 08:04:08;;;;;;;3.78;1.45;;;1.70;99.90;;;;;;5048117;28;20036;-90
2021/11/29 08:06:34;;;;;;;5.03;1.13;;;1.70;99.90;;;;;;5048479;28;20045;-91
2021/11/29 08:08:59;;;;;;;5.45;1.15;;;1.80;99.90;;;;;;5047548;28;20106;-90
2021/11/29 08:11:25;;;;;;;4.32;1.00;;;1.80;99.90;;;;;;5031508;28;20037;-89
2021/11/29 08:13:51;;;;;;;3.33;1.00;;;1.80;99.90;;;;;;5031378;28;20037;-91
2021/11/29 08:16:16;;;;;;;4.75;1.00;;;1.80;99.90;;;;;;5031346;28;20499;-91
2021/11/29 08:18:43;;;;;;;6.38;0.82;;;1.80;99.90;;;;;;5031322;28;20059;-90
2021/11/29 08:21:09;;;;;;;5.80;1.00;;;1.90;99.90;;;;;;5031205;28;20041;-90
2021/11/29 08:23:34;;;;;;;5.65;0.95;;;2.00;99.90;;;;;;5047992;28;20047;-90
2021/11/29 08:26:01;;;;;;;4.78;0.80;;;1.90;99.90;;;;;;5031385;28;20079;-90
2021/11/29 08:28:27;;;;;;;6.15;1.10;;;2.00;99.90;;;;;;5031133;28;20052;-90
2021/11/29 08:30:52;;;;;;;7.03;1.15;;;2.10;99.90;;;;;;5030991;28;20049;-89
2021/11/29 08:33:18;;;;;;;2.97;0.90;;;2.00;99.90;;;;;;5047734;28;20056;-89
2021/11/29 08:35:46;;;;;;;5.10;0.70;;;2.00;99.90;;;;;;5031086;28;20056;-89
2021/11/29 08:38:13;;;;;;;3.67;0.52;;;2.10;99.90;;;;;;5048052;28;20071;-88
2021/11/29 08:40:39;;;;;;;5.10;0.70;;;2.10;99.90;;;;;;5031044;28;20405;-90
2021/11/29 08:43:11;;;;;;;2.50;0.70;;;2.10;99.90;;;;;;5031060;28;20040;-90
2021/11/29 08:45:38;;;;;;;3.83;0.70;;;2.10;99.90;;;;;;5031763;28;20037;-90
2021/11/29 08:48:06;;;;;;;6.82;1.20;;;2.10;99.90;;;;;;5030878;28;20049;-90
2021/11/29 08:50:33;;;;;;;6.47;1.05;;;2.10;99.90;;;;;;5031284;28;20045;-90
2021/11/29 08:53:07;;;;;;;4.28;0.70;;;2.20;99.90;;;;;;5039537;28;20048;-90
2021/11/29 08:55:34;;;;;;;4.82;1.25;;;2.20;99.90;;;;;;5029831;28;20044;-93
2021/11/29 08:58:00;;;;;;;6.82;1.00;;;2.30;99.90;;;;;;5034754;28;20120;-90
2021/11/29 09:00:26;;;;;;;4.18;0.70;;;2.30;99.90;;;;;;5034644;28;20041;-90
2021/11/29 09:02:52;;;;;;;5.70;1.00;;;2.30;99.90;;;;;;5034731;28;20033;-90
2021/11/29 09:05:18;;;;;;;3.70;0.70;;;2.20;99.90;;;;;;5051079;28;20041;-91
2021/11/29 09:07:45;;;;;;;3.38;0.60;;;2.10;99.90;;;;;;5051617;28;20122;-90
2021/11/29 09:10:11;;;;;;;3.42;0.75;;;2.10;99.90;;;;;;5034385;28;20103;-91
2021/11/29 09:12:38;;;;;;;10.13;1.63;;;2.20;99.90;;;;;;5034558;28;20061;-90
2021/11/29 09:15:06;;;;;;;4.00;0.88;;;2.30;99.90;;;;;;5034511;28;20045;-90
2021/11/29 09:17:32;;;;;;;4.75;0.88;;;2.50;99.90;;;;;;5034623;28;20046;-91
2021/11/29 09:19:58;;;;;;;7.32;1.20;;;2.50;99.90;;;;;;5033991;28;20117;-90
2021/11/29 09:22:24;;;;;;;4.68;0.70;;;2.60;99.90;;;;;;5034145;28;20045;-92
2021/11/29 09:24:50;;;;;;;2.97;0.70;;;2.70;99.90;;;;;;5034134;28;20052;-90
2021/11/29 09:27:16;;;;;;;6.35;1.08;;;2.80;99.90;;;;;;5034280;28;20041;-90
2021/11/29 09:29:45;;;;;;;4.10;0.82;;;2.90;99.90;;;;;;5034126;28;20049;-92
2021/11/29 09:32:12;;;;;;;5.22;1.00;;;3.00;99.90;;;;;;5034259;28;20060;-91
2021/11/29 09:34:37;;;;;;;6.55;0.98;;;3.00;99.90;;;;;;5034189;28;20045;-92
2021/11/29 09:37:03;;;;;;;4.25;0.55;;;3.10;99.90;;;;;;5034147;28;20044;-90
2021/11/29 09:39:29;;;;;;;3.58;0.40;;;3.20;99.90;;;;;;5034142;28;20134;-93
2021/11/29 09:41:54;;;;;;;4.10;0.47;;;3.30;99.90;;;;;;5050852;28;20033;-92
2021/11/29 09:44:20;;;;;;;2.15;0.40;;;3.40;99.90;;;;;;5034486;28;20029;-91
2021/11/29 09:46:46;;;;;;;7.05;0.40;;;3.40;99.90;;;;;;5034293;28;20485;-92
2021/11/29 09:49:12;;;;;;;6.18;0.38;;;3.50;99.90;;;;;;5033600;28;20176;-90
2021/11/29 09:51:37;;;;;;;3.28;0.30;;;3.50;99.90;;;;;;5043249;28;20047;-92
2021/11/29 09:54:07;;;;;;;4.95;0.20;;;3.60;99.90;;;;;;5050643;28;20401;-94
2021/11/29 09:56:33;;;;;;;1.50;0.25;;;3.80;99.90;;;;;;5050528;28;20065;-90
2021/11/29 09:58:59;;;;;;;4.90;0.30;;;3.90;99.90;;;;;;5050368;28;20040;-93
2021/11/29 10:01:24;;;;;;;1.83;0.30;;;3.90;99.90;;;;;;5050102;28;20049;-90
2021/11/29 10:03:50;;;;;;;3.22;0.20;;;4.00;99.90;;;;;;5066846;28;20029;-91
2021/11/29 10:06:16;;;;;;;3.72;0.35;;;4.10;99.90;;;;;;5065555;28;20043;-90
2021/11/29 10:08:41;;;;;;;6.93;0.30;;;4.10;99.90;;;;;;5049769;28;20056;-91
2021/11/29 10:11:15;;;;;;;4.22;0.20;;;4.30;99.90;;;;;;5034548;28;20087;-93
2021/11/29 10:13:56;;;;;;;1.77;0.30;;;4.40;99.90;;;;;;5033710;28;20072;-94
2021/11/29 10:16:40;;;;;;;1.38;0.20;;;4.60;99.90;;;;;;5033582;28;20036;-92
2021/11/29 10:19:28;;;;;;;3.70;0.30;;;4.50;99.90;;;;;;5049988;28;20055;-91
2021/11/29 10:22:13;;;;;;;1.52;0.40;;;4.40;99.90;;;;;;5049470;28;20073;-91
2021/11/29 10:24:39;;;;;;;1.52;0.30;;;4.40;99.90;;;;;;5033642;28;20041;-91
2021/11/29 10:27:04;;;;;;;3.78;0.25;;;4.50;99.90;;;;;;5033108;28;20047;-91
2021/11/29 10:29:30;;;;;;;2.75;0.30;;;4.50;99.90;;;;;;5046251;28;20515;-89
2021/11/29 10:31:57;;;;;;;2.80;0.25;;;4.50;99.90;;;;;;5046139;28;20517;-92
2021/11/29 10:34:26;;;;;;;3.80;0.22;;;4.50;99.90;;;;;;5029679;28;20052;-92
2021/11/29 10:37:09;;;;;;;2.87;0.40;;;4.50;99.90;;;;;;5046212;28;20045;-90
2021/11/29 10:39:40;;;;;;;5.15;0.30;;;4.50;99.90;;;;;;5029621;28;20045;-90
2021/11/29 10:42:12;;;;;;;3.08;0.30;;;4.40;99.90;;;;;;5029516;28;20093;-90
2021/11/29 10:44:42;;;;;;;3.72;0.30;;;4.50;99.90;;;;;;5029632;28;20050;-90
2021/11/29 10:47:14;;;;;;;2.85;0.25;;;4.50;99.90;;;;;;5029487;28;20042;-90
2021/11/29 10:49:48;;;;;;;12.57;0.50;;;4.50;99.90;;;;;;5029265;28;20461;-90
2021/11/29 10:52:21;;;;;;;3.20;0.20;;;4.40;99.90;;;;;;5032942;28;20041;-91
2021/11/29 10:54:46;;;;;;;1.27;0.20;;;4.40;99.90;;;;;;5032814;28;20534;-92
2021/11/29 10:57:14;;;;;;;1.00;0.20;;;4.40;99.90;;;;;;5032579;28;20057;-93
2021/11/29 10:59:43;;;;;;;0.88;0.20;;;4.40;99.90;;;;;;5032461;28;20045;-93
2021/11/29 11:02:11;;;;;;;1.55;0.20;;;4.20;99.90;;;;;;5032486;28;20036;-90
2021/11/29 11:04:43;;;;;;;2.63;0.20;;;4.10;99.90;;;;;;5032728;28;20041;-92
2021/11/29 11:07:20;;;;;;;1.25;0.30;;;4.30;99.90;;;;;;5049259;28;20048;-92
2021/11/29 11:09:51;;;;;;;1.55;0.30;;;4.50;99.90;;;;;;5028588;28;20129;-90
2021/11/29 11:12:19;;;;;;;2.20;0.20;;;4.60;99.90;;;;;;5028824;28;20064;-90
2021/11/29 11:14:56;;;;;;;1.15;0.30;;;4.80;99.90;;;;;;5045463;28;20038;-90
2021/11/29 11:17:24;;;;;;;1.30;0.28;;;4.80;99.90;;;;;;5028527;28;20096;-91
2021/11/29 11:19:52;;;;;;;1.13;0.30;;;4.80;99.90;;;;;;5028982;28;20063;-91
2021/11/29 11:22:39;;;;;;;2.65;0.20;;;4.90;99.90;;;;;;5028760;28;20068;-92
2021/11/29 11:25:08;;;;;;;1.08;0.20;;;4.90;99.90;;;;;;5028858;28;20038;-93
2021/11/29 11:27:42;;;;;;;2.67;0.30;;;4.90;99.90;;;;;;5044970;28;20046;-91
2021/11/29 11:30:10;;;;;;;3.30;0.20;;;5.00;99.90;;;;;;5045374;28;20049;-90
2021/11/29 11:32:37;;;;;;;3.25;0.20;;;5.00;99.90;;;;;;5061630;28;20065;-92
2021/11/29 11:35:12;;;;;;;3.30;0.30;;;5.00;99.90;;;;;;5028468;28;20037;-91
2021/11/29 11:37:42;;;;;;;1.63;0.22;;;5.10;99.90;;;;;;5045183;28;20132;-93
2021/11/29 11:40:29;;;;;;;1.27;0.20;;;5.10;99.90;;;;;;5028265;28;20038;-90
2021/11/29 11:42:56;;;;;;;1.75;0.20;;;5.30;99.90;;;;;;4968760;28;20696;-92
2021/11/29 11:45:25;;;;;;;2.78;0.93;;;5.20;99.90;;;;;;4969072;28;20073;-92
2021/11/29 11:47:52;;;;;;;2.13;0.20;;;5.20;99.90;;;;;;4952381;28;20053;-93
2021/11/29 11:50:21;;;;;;;1.65;0.20;;;5.30;99.90;;;;;;4954547;28;20082;-91
2021/11/29 11:52:47;;;;;;;2.55;0.38;;;5.10;99.90;;;;;;4972053;28;20064;-93
2021/11/29 11:55:16;;;;;;;1.95;0.30;;;5.10;99.90;;;;;;4971868;28;20571;-91
2021/11/29 11:57:42;;;;;;;5.17;0.40;;;5.20;99.90;;;;;;4962612;28;20043;-94
2021/11/29 12:00:36;;;;;;;1.20;0.30;;;5.20;99.90;;;;;;4968636;28;20126;-90
2021/11/29 12:03:20;;;;;;;1.38;0.20;;;5.10;99.90;;;;;;5002773;28;20038;-92
2021/11/29 12:05:53;;;;;;;2.97;0.20;;;5.10;99.90;;;;;;5004170;28;20144;-90
2021/11/29 12:08:56;;;;;;;1.23;0.20;;;5.20;99.90;;;;;;5004122;28;20046;-92
2021/11/29 12:11:25;;;;;;;6.75;0.60;;;5.30;99.90;;;;;;4967613;28;20046;-91
2021/11/29 12:14:11;;;;;;;0.60;0.20;;;5.20;99.90;;;;;;4967891;28;20070;-91
2021/11/29 12:16:41;;;;;;;3.22;0.20;;;5.10;99.90;;;;;;4968409;28;20098;-90
2021/11/29 12:19:33;;;;;;;1.35;0.30;;;5.20;99.90;;;;;;4990343;28;20075;-91
2021/11/29 12:22:18;;;;;;;1.85;0.28;;;5.20;99.90;;;;;;5008177;28;20041;-90
2021/11/29 12:25:22;;;;;;;3.08;0.20;;;5.20;99.90;;;;;;5008257;28;20052;-89
2021/11/29 12:27:57;;;;;;;3.08;0.30;;;5.30;99.90;;;;;;5006561;28;20073;-90
2021/11/29 12:30:42;;;;;;;0.68;0.28;;;5.40;99.90;;;;;;5007045;28;20073;-89
2021/11/29 12:33:12;;;;;;;1.63;0.30;;;5.60;99.90;;;;;;5007799;28;20034;-90
2021/11/29 12:36:02;;;;;;;1.65;0.20;;;5.50;99.90;;;;;;5007979;28;20099;-90
2021/11/29 12:38:27;;;;;;;2.35;0.20;;;5.50;99.90;;;;;;5007595;28;20068;-91
2021/11/29 12:41:06;;;;;;;1.65;0.20;;;5.70;99.90;;;;;;5007994;28;20073;-92
2021/11/29 12:43:34;;;;;;;1.00;0.30;;;5.70;99.90;;;;;;5008070;28;20132;-90
2021/11/29 12:46:16;;;;;;;2.92;0.82;;;5.70;99.90;;;;;;5007334;28;20065;-90
2021/11/29 12:48:41;;;;;;;2.88;0.30;;;5.80;99.90;;;;;;5024408;28;20435;-91
2021/11/29 12:51:07;;;;;;;3.85;0.20;;;5.80;99.90;;;;;;5019930;28;20109;-91
2021/11/29 12:53:41;;;;;;;1.52;0.30;;;5.70;99.90;;;;;;5031336;28;20055;-90
2021/11/29 12:56:23;;;;;;;1.30;0.20;;;5.80;99.90;;;;;;5031125;28;20056;-91
2021/11/29 12:59:08;;;;;;;1.42;0.30;;;5.80;99.90;;;;;;5030843;28;20041;-91
2021/11/29 13:01:36;;;;;;;3.42;0.30;;;5.60;99.90;;;;;;5030849;28;20037;-93
2021/11/29 13:04:03;;;;;;;5.45;0.65;;;5.60;99.90;;;;;;5030959;28;20065;-91